Terminal Aerodrome Forecast
Issued by NWS Jackson, MS

Home | Current Version | Previous Version | Text Only | Print | Product List | Glossary On
Versions: 1 2 3 4 5 6 7 8 9
890
FTUS44 KJAN 231720
TAFGWO
TAF
KGWO 231720Z 2318/2418 34009KT P6SM OVC025
     FM232100 33006KT P6SM OVC050
     FM240400 33003KT P6SM SKC=

USA.gov is the U.S. government's official web portal to all federal, state and local government web resources and services.